sensor_id;sensor_type;location;lat;lon;timestamp;P1;durP1;ratioP1;P2;durP2;ratioP2
49730;SDS011;35622;52.008;5.426;2022-08-19T00:00:04;8.63;;;6.70;;
49730;SDS011;35622;52.008;5.426;2022-08-19T00:02:34;6.93;;;6.28;;
49730;SDS011;35622;52.008;5.426;2022-08-19T00:05:00;7.43;;;6.63;;
49730;SDS011;35622;52.008;5.426;2022-08-19T00:07:26;8.57;;;6.38;;
49730;SDS011;35622;52.008;5.426;2022-08-19T00:09:52;7.38;;;6.38;;
49730;SDS011;35622;52.008;5.426;2022-08-19T00:12:18;7.57;;;6.88;;
49730;SDS011;35622;52.008;5.426;2022-08-19T00:14:44;7.90;;;6.60;;
49730;SDS011;35622;52.008;5.426;2022-08-19T00:17:10;8.63;;;6.57;;
49730;SDS011;35622;52.008;5.426;2022-08-19T00:19:36;8.30;;;7.03;;
49730;SDS011;35622;52.008;5.426;2022-08-19T00:22:02;6.82;;;6.22;;
49730;SDS011;35622;52.008;5.426;2022-08-19T00:24:28;7.47;;;6.15;;
49730;SDS011;35622;52.008;5.426;2022-08-19T00:26:54;9.48;;;7.05;;
49730;SDS011;35622;52.008;5.426;2022-08-19T00:29:22;7.03;;;6.43;;
49730;SDS011;35622;52.008;5.426;2022-08-19T00:31:48;7.80;;;7.10;;
49730;SDS011;35622;52.008;5.426;2022-08-19T00:34:15;7.60;;;6.85;;
49730;SDS011;35622;52.008;5.426;2022-08-19T00:36:41;7.70;;;7.00;;
49730;SDS011;35622;52.008;5.426;2022-08-19T00:39:07;7.97;;;6.20;;
49730;SDS011;35622;52.008;5.426;2022-08-19T00:41:33;7.72;;;6.53;;
49730;SDS011;35622;52.008;5.426;2022-08-19T00:44:07;9.27;;;6.80;;
49730;SDS011;35622;52.008;5.426;2022-08-19T00:46:34;7.53;;;6.82;;
49730;SDS011;35622;52.008;5.426;2022-08-19T00:49:02;8.63;;;6.90;;
49730;SDS011;35622;52.008;5.426;2022-08-19T00:51:39;9.52;;;7.40;;
49730;SDS011;35622;52.008;5.426;2022-08-19T00:54:07;9.70;;;7.95;;
49730;SDS011;35622;52.008;5.426;2022-08-19T00:56:34;9.05;;;7.95;;
49730;SDS011;35622;52.008;5.426;2022-08-19T00:59:00;9.07;;;6.95;;
49730;SDS011;35622;52.008;5.426;2022-08-19T01:01:27;9.25;;;8.20;;
49730;SDS011;35622;52.008;5.426;2022-08-19T01:03:53;10.77;;;7.60;;
49730;SDS011;35622;52.008;5.426;2022-08-19T01:06:19;9.13;;;7.43;;
49730;SDS011;35622;52.008;5.426;2022-08-19T01:08:45;10.65;;;8.20;;
49730;SDS011;35622;52.008;5.426;2022-08-19T01:11:10;10.98;;;7.97;;
49730;SDS011;35622;52.008;5.426;2022-08-19T01:13:37;9.77;;;7.97;;
49730;SDS011;35622;52.008;5.426;2022-08-19T01:16:07;10.65;;;9.13;;
49730;SDS011;35622;52.008;5.426;2022-08-19T01:18:42;10.23;;;9.23;;
49730;SDS011;35622;52.008;5.426;2022-08-19T01:21:55;10.43;;;8.60;;
49730;SDS011;35622;52.008;5.426;2022-08-19T01:23:54;9.35;;;8.23;;
49730;SDS011;35622;52.008;5.426;2022-08-19T01:26:20;8.77;;;7.88;;
49730;SDS011;35622;52.008;5.426;2022-08-19T01:28:48;9.50;;;8.40;;
49730;SDS011;35622;52.008;5.426;2022-08-19T01:31:16;10.00;;;8.70;;
49730;SDS011;35622;52.008;5.426;2022-08-19T01:33:46;10.75;;;7.70;;
49730;SDS011;35622;52.008;5.426;2022-08-19T01:36:22;9.75;;;8.10;;
49730;SDS011;35622;52.008;5.426;2022-08-19T01:39:00;11.60;;;8.27;;
49730;SDS011;35622;52.008;5.426;2022-08-19T01:41:28;8.88;;;7.90;;
49730;SDS011;35622;52.008;5.426;2022-08-19T01:43:54;8.38;;;7.25;;
49730;SDS011;35622;52.008;5.426;2022-08-19T01:46:21;8.15;;;6.85;;
49730;SDS011;35622;52.008;5.426;2022-08-19T01:48:47;10.07;;;7.10;;
49730;SDS011;35622;52.008;5.426;2022-08-19T01:51:13;9.80;;;6.90;;
49730;SDS011;35622;52.008;5.426;2022-08-19T01:53:39;8.25;;;6.90;;
49730;SDS011;35622;52.008;5.426;2022-08-19T01:56:06;7.70;;;6.82;;
49730;SDS011;35622;52.008;5.426;2022-08-19T01:58:33;10.23;;;7.88;;
49730;SDS011;35622;52.008;5.426;2022-08-19T02:01:03;8.98;;;8.07;;
49730;SDS011;35622;52.008;5.426;2022-08-19T02:03:30;8.20;;;7.18;;
49730;SDS011;35622;52.008;5.426;2022-08-19T02:05:56;9.32;;;6.88;;
49730;SDS011;35622;52.008;5.426;2022-08-19T02:08:24;9.70;;;7.63;;
49730;SDS011;35622;52.008;5.426;2022-08-19T02:10:52;9.00;;;8.02;;
49730;SDS011;35622;52.008;5.426;2022-08-19T02:13:18;7.85;;;6.93;;
49730;SDS011;35622;52.008;5.426;2022-08-19T02:15:44;8.98;;;8.07;;
49730;SDS011;35622;52.008;5.426;2022-08-19T02:18:09;9.00;;;7.70;;
49730;SDS011;35622;52.008;5.426;2022-08-19T02:20:36;11.20;;;7.78;;
49730;SDS011;35622;52.008;5.426;2022-08-19T02:23:03;9.35;;;8.32;;
49730;SDS011;35622;52.008;5.426;2022-08-19T02:25:29;9.70;;;7.90;;
49730;SDS011;35622;52.008;5.426;2022-08-19T02:27:55;12.75;;;8.73;;
49730;SDS011;35622;52.008;5.426;2022-08-19T02:30:21;9.65;;;8.05;;
49730;SDS011;35622;52.008;5.426;2022-08-19T02:32:47;10.93;;;7.45;;
49730;SDS011;35622;52.008;5.426;2022-08-19T02:35:13;10.23;;;8.57;;
49730;SDS011;35622;52.008;5.426;2022-08-19T02:37:39;10.02;;;8.20;;
49730;SDS011;35622;52.008;5.426;2022-08-19T02:40:24;9.48;;;7.93;;
49730;SDS011;35622;52.008;5.426;2022-08-19T02:42:50;9.32;;;7.75;;
49730;SDS011;35622;52.008;5.426;2022-08-19T02:45:16;8.25;;;7.07;;
49730;SDS011;35622;52.008;5.426;2022-08-19T02:47:41;7.90;;;6.82;;
49730;SDS011;35622;52.008;5.426;2022-08-19T02:50:07;7.47;;;6.60;;
49730;SDS011;35622;52.008;5.426;2022-08-19T02:52:33;7.25;;;6.55;;
49730;SDS011;35622;52.008;5.426;2022-08-19T02:54:59;8.27;;;7.40;;
49730;SDS011;35622;52.008;5.426;2022-08-19T02:57:26;9.93;;;7.90;;
49730;SDS011;35622;52.008;5.426;2022-08-19T02:59:52;11.43;;;8.07;;
49730;SDS011;35622;52.008;5.426;2022-08-19T03:02:18;10.60;;;7.72;;
49730;SDS011;35622;52.008;5.426;2022-08-19T03:04:44;7.70;;;6.90;;
49730;SDS011;35622;52.008;5.426;2022-08-19T03:07:12;9.27;;;7.53;;
49730;SDS011;35622;52.008;5.426;2022-08-19T03:09:39;8.70;;;6.60;;
49730;SDS011;35622;52.008;5.426;2022-08-19T03:12:05;9.63;;;7.30;;
49730;SDS011;35622;52.008;5.426;2022-08-19T03:14:34;10.15;;;7.93;;
49730;SDS011;35622;52.008;5.426;2022-08-19T03:17:00;9.63;;;8.10;;
49730;SDS011;35622;52.008;5.426;2022-08-19T03:19:26;13.40;;;10.80;;
49730;SDS011;35622;52.008;5.426;2022-08-19T03:21:52;10.75;;;9.27;;
49730;SDS011;35622;52.008;5.426;2022-08-19T03:24:18;10.27;;;8.63;;
49730;SDS011;35622;52.008;5.426;2022-08-19T03:26:46;10.00;;;8.75;;
49730;SDS011;35622;52.008;5.426;2022-08-19T03:29:14;10.63;;;8.65;;
49730;SDS011;35622;52.008;5.426;2022-08-19T03:31:42;14.02;;;8.57;;
49730;SDS011;35622;52.008;5.426;2022-08-19T03:34:13;9.85;;;8.27;;
49730;SDS011;35622;52.008;5.426;2022-08-19T03:36:42;10.30;;;8.45;;
49730;SDS011;35622;52.008;5.426;2022-08-19T03:39:09;11.05;;;9.05;;
49730;SDS011;35622;52.008;5.426;2022-08-19T03:41:36;11.30;;;9.75;;
49730;SDS011;35622;52.008;5.426;2022-08-19T03:44:04;11.60;;;9.80;;
49730;SDS011;35622;52.008;5.426;2022-08-19T03:46:31;11.00;;;8.95;;
49730;SDS011;35622;52.008;5.426;2022-08-19T03:48:59;13.88;;;9.93;;
49730;SDS011;35622;52.008;5.426;2022-08-19T03:51:30;10.77;;;8.93;;
49730;SDS011;35622;52.008;5.426;2022-08-19T03:54:01;10.48;;;8.88;;
49730;SDS011;35622;52.008;5.426;2022-08-19T03:56:28;12.10;;;8.23;;
49730;SDS011;35622;52.008;5.426;2022-08-19T03:58:55;10.68;;;8.25;;
49730;SDS011;35622;52.008;5.426;2022-08-19T04:01:22;10.73;;;9.45;;
49730;SDS011;35622;52.008;5.426;2022-08-19T04:03:51;11.13;;;8.25;;
49730;SDS011;35622;52.008;5.426;2022-08-19T04:06:18;10.70;;;8.63;;
49730;SDS011;35622;52.008;5.426;2022-08-19T04:08:47;8.93;;;8.02;;
49730;SDS011;35622;52.008;5.426;2022-08-19T04:11:16;10.27;;;7.13;;
49730;SDS011;35622;52.008;5.426;2022-08-19T04:13:47;10.43;;;8.50;;
49730;SDS011;35622;52.008;5.426;2022-08-19T04:16:14;11.10;;;8.15;;
49730;SDS011;35622;52.008;5.426;2022-08-19T04:18:40;14.52;;;11.85;;
49730;SDS011;35622;52.008;5.426;2022-08-19T04:21:07;16.85;;;12.60;;
49730;SDS011;35622;52.008;5.426;2022-08-19T04:23:33;15.88;;;11.68;;
49730;SDS011;35622;52.008;5.426;2022-08-19T04:26:01;16.45;;;11.82;;
49730;SDS011;35622;52.008;5.426;2022-08-19T04:28:27;16.17;;;11.52;;
49730;SDS011;35622;52.008;5.426;2022-08-19T04:30:53;14.38;;;11.52;;
49730;SDS011;35622;52.008;5.426;2022-08-19T04:33:21;13.50;;;11.75;;
49730;SDS011;35622;52.008;5.426;2022-08-19T04:35:49;14.93;;;11.18;;
49730;SDS011;35622;52.008;5.426;2022-08-19T04:38:16;16.00;;;12.15;;
49730;SDS011;35622;52.008;5.426;2022-08-19T04:40:48;14.77;;;11.30;;
49730;SDS011;35622;52.008;5.426;2022-08-19T04:43:34;13.90;;;11.38;;
49730;SDS011;35622;52.008;5.426;2022-08-19T04:46:06;16.33;;;11.32;;
49730;SDS011;35622;52.008;5.426;2022-08-19T04:48:33;14.90;;;11.13;;
49730;SDS011;35622;52.008;5.426;2022-08-19T04:50:59;15.90;;;12.05;;
49730;SDS011;35622;52.008;5.426;2022-08-19T04:53:29;14.45;;;10.80;;
49730;SDS011;35622;52.008;5.426;2022-08-19T04:55:56;13.77;;;11.05;;
49730;SDS011;35622;52.008;5.426;2022-08-19T04:58:23;12.13;;;9.95;;
49730;SDS011;35622;52.008;5.426;2022-08-19T05:00:51;14.90;;;10.50;;
49730;SDS011;35622;52.008;5.426;2022-08-19T05:03:17;13.40;;;10.65;;
49730;SDS011;35622;52.008;5.426;2022-08-19T05:05:44;13.63;;;9.20;;
49730;SDS011;35622;52.008;5.426;2022-08-19T05:08:20;12.88;;;10.52;;
49730;SDS011;35622;52.008;5.426;2022-08-19T05:10:47;14.32;;;9.95;;
49730;SDS011;35622;52.008;5.426;2022-08-19T05:13:14;13.63;;;10.18;;
49730;SDS011;35622;52.008;5.426;2022-08-19T05:15:41;12.25;;;10.05;;
49730;SDS011;35622;52.008;5.426;2022-08-19T05:18:07;14.15;;;10.55;;
49730;SDS011;35622;52.008;5.426;2022-08-19T05:20:51;14.50;;;10.57;;
49730;SDS011;35622;52.008;5.426;2022-08-19T05:23:35;12.60;;;10.25;;
49730;SDS011;35622;52.008;5.426;2022-08-19T05:26:01;13.63;;;9.95;;
49730;SDS011;35622;52.008;5.426;2022-08-19T05:28:27;11.27;;;10.00;;
49730;SDS011;35622;52.008;5.426;2022-08-19T05:30:53;10.82;;;9.40;;
49730;SDS011;35622;52.008;5.426;2022-08-19T05:33:20;12.30;;;10.70;;
49730;SDS011;35622;52.008;5.426;2022-08-19T05:35:47;10.98;;;9.85;;
49730;SDS011;35622;52.008;5.426;2022-08-19T05:38:14;12.60;;;10.20;;
49730;SDS011;35622;52.008;5.426;2022-08-19T05:40:41;14.07;;;10.00;;
49730;SDS011;35622;52.008;5.426;2022-08-19T05:43:11;14.82;;;10.38;;
49730;SDS011;35622;52.008;5.426;2022-08-19T05:45:40;10.70;;;9.23;;
49730;SDS011;35622;52.008;5.426;2022-08-19T05:48:07;11.05;;;9.93;;
49730;SDS011;35622;52.008;5.426;2022-08-19T05:50:36;11.73;;;9.65;;
49730;SDS011;35622;52.008;5.426;2022-08-19T05:53:02;9.68;;;8.60;;
49730;SDS011;35622;52.008;5.426;2022-08-19T05:55:28;12.98;;;9.85;;
49730;SDS011;35622;52.008;5.426;2022-08-19T05:57:54;11.20;;;10.10;;
49730;SDS011;35622;52.008;5.426;2022-08-19T06:00:19;11.43;;;9.88;;
49730;SDS011;35622;52.008;5.426;2022-08-19T06:02:45;11.30;;;9.98;;
49730;SDS011;35622;52.008;5.426;2022-08-19T06:05:11;13.02;;;9.95;;
49730;SDS011;35622;52.008;5.426;2022-08-19T06:07:37;10.07;;;9.05;;
49730;SDS011;35622;52.008;5.426;2022-08-19T06:10:07;11.80;;;9.95;;
49730;SDS011;35622;52.008;5.426;2022-08-19T06:12:34;9.90;;;8.90;;
49730;SDS011;35622;52.008;5.426;2022-08-19T06:15:01;9.30;;;8.40;;
49730;SDS011;35622;52.008;5.426;2022-08-19T06:17:29;9.75;;;8.23;;
49730;SDS011;35622;52.008;5.426;2022-08-19T06:19:55;10.50;;;8.60;;
49730;SDS011;35622;52.008;5.426;2022-08-19T06:22:21;11.02;;;8.75;;
49730;SDS011;35622;52.008;5.426;2022-08-19T06:24:47;9.77;;;8.77;;
49730;SDS011;35622;52.008;5.426;2022-08-19T06:27:17;11.00;;;9.63;;
49730;SDS011;35622;52.008;5.426;2022-08-19T06:29:43;9.70;;;8.68;;
49730;SDS011;35622;52.008;5.426;2022-08-19T06:32:08;11.23;;;9.02;;
49730;SDS011;35622;52.008;5.426;2022-08-19T06:34:34;10.57;;;9.40;;
49730;SDS011;35622;52.008;5.426;2022-08-19T06:37:00;15.60;;;12.40;;
49730;SDS011;35622;52.008;5.426;2022-08-19T06:39:28;14.80;;;11.55;;
49730;SDS011;35622;52.008;5.426;2022-08-19T06:41:57;26.45;;;18.25;;
49730;SDS011;35622;52.008;5.426;2022-08-19T06:44:26;16.58;;;13.45;;
49730;SDS011;35622;52.008;5.426;2022-08-19T06:46:53;15.98;;;13.45;;
49730;SDS011;35622;52.008;5.426;2022-08-19T06:49:20;20.30;;;16.48;;
49730;SDS011;35622;52.008;5.426;2022-08-19T06:51:46;21.40;;;16.15;;
49730;SDS011;35622;52.008;5.426;2022-08-19T06:54:13;49.90;;;31.35;;
49730;SDS011;35622;52.008;5.426;2022-08-19T06:56:39;55.97;;;35.28;;
49730;SDS011;35622;52.008;5.426;2022-08-19T06:59:12;48.30;;;30.95;;
49730;SDS011;35622;52.008;5.426;2022-08-19T07:01:48;36.00;;;24.38;;
49730;SDS011;35622;52.008;5.426;2022-08-19T07:04:17;39.33;;;26.30;;
49730;SDS011;35622;52.008;5.426;2022-08-19T07:06:45;37.03;;;25.05;;
49730;SDS011;35622;52.008;5.426;2022-08-19T07:09:13;56.25;;;33.60;;
49730;SDS011;35622;52.008;5.426;2022-08-19T07:11:43;54.45;;;34.92;;
49730;SDS011;35622;52.008;5.426;2022-08-19T07:14:13;64.78;;;38.80;;
49730;SDS011;35622;52.008;5.426;2022-08-19T07:16:40;66.13;;;40.28;;
49730;SDS011;35622;52.008;5.426;2022-08-19T07:19:06;68.50;;;40.05;;
49730;SDS011;35622;52.008;5.426;2022-08-19T07:21:32;61.63;;;38.33;;
49730;SDS011;35622;52.008;5.426;2022-08-19T07:23:58;59.55;;;37.38;;
49730;SDS011;35622;52.008;5.426;2022-08-19T07:26:26;65.28;;;41.20;;
49730;SDS011;35622;52.008;5.426;2022-08-19T07:28:56;55.65;;;36.47;;
49730;SDS011;35622;52.008;5.426;2022-08-19T07:31:23;61.90;;;40.80;;
49730;SDS011;35622;52.008;5.426;2022-08-19T07:33:51;61.63;;;40.40;;
49730;SDS011;35622;52.008;5.426;2022-08-19T07:36:20;58.83;;;39.80;;
49730;SDS011;35622;52.008;5.426;2022-08-19T07:38:49;61.17;;;40.22;;
49730;SDS011;35622;52.008;5.426;2022-08-19T07:41:25;61.67;;;40.25;;
49730;SDS011;35622;52.008;5.426;2022-08-19T07:43:54;53.83;;;36.92;;
49730;SDS011;35622;52.008;5.426;2022-08-19T07:46:19;57.30;;;39.95;;
49730;SDS011;35622;52.008;5.426;2022-08-19T07:48:46;50.05;;;36.50;;
49730;SDS011;35622;52.008;5.426;2022-08-19T07:51:15;51.63;;;38.50;;
49730;SDS011;35622;52.008;5.426;2022-08-19T07:53:44;49.03;;;35.25;;
49730;SDS011;35622;52.008;5.426;2022-08-19T07:56:11;48.03;;;35.17;;
49730;SDS011;35622;52.008;5.426;2022-08-19T07:58:40;49.05;;;35.08;;
49730;SDS011;35622;52.008;5.426;2022-08-19T08:01:10;46.38;;;34.58;;
49730;SDS011;35622;52.008;5.426;2022-08-19T08:03:38;49.53;;;36.83;;
49730;SDS011;35622;52.008;5.426;2022-08-19T08:06:23;44.50;;;34.38;;
49730;SDS011;35622;52.008;5.426;2022-08-19T08:09:08;35.70;;;30.08;;
49730;SDS011;35622;52.008;5.426;2022-08-19T08:12:00;35.00;;;28.98;;
49730;SDS011;35622;52.008;5.426;2022-08-19T08:14:28;41.03;;;34.55;;
49730;SDS011;35622;52.008;5.426;2022-08-19T08:16:53;34.53;;;30.42;;
49730;SDS011;35622;52.008;5.426;2022-08-19T08:19:20;34.10;;;30.48;;
49730;SDS011;35622;52.008;5.426;2022-08-19T08:21:48;33.40;;;29.90;;
49730;SDS011;35622;52.008;5.426;2022-08-19T08:24:14;36.40;;;30.77;;
49730;SDS011;35622;52.008;5.426;2022-08-19T08:26:40;37.13;;;33.22;;
49730;SDS011;35622;52.008;5.426;2022-08-19T08:29:07;39.63;;;35.33;;
49730;SDS011;35622;52.008;5.426;2022-08-19T08:31:35;33.95;;;28.92;;
49730;SDS011;35622;52.008;5.426;2022-08-19T08:34:01;35.65;;;30.92;;
49730;SDS011;35622;52.008;5.426;2022-08-19T08:36:26;32.42;;;28.05;;
49730;SDS011;35622;52.008;5.426;2022-08-19T08:38:52;32.25;;;27.80;;
49730;SDS011;35622;52.008;5.426;2022-08-19T08:41:22;27.17;;;24.20;;
49730;SDS011;35622;52.008;5.426;2022-08-19T08:44:20;23.58;;;20.38;;
49730;SDS011;35622;52.008;5.426;2022-08-19T08:47:09;25.48;;;22.65;;
49730;SDS011;35622;52.008;5.426;2022-08-19T08:49:41;25.42;;;21.23;;
49730;SDS011;35622;52.008;5.426;2022-08-19T08:52:15;27.10;;;22.58;;
49730;SDS011;35622;52.008;5.426;2022-08-19T08:54:49;30.55;;;24.50;;
49730;SDS011;35622;52.008;5.426;2022-08-19T08:57:21;27.23;;;21.75;;
49730;SDS011;35622;52.008;5.426;2022-08-19T08:59:52;25.33;;;20.63;;
49730;SDS011;35622;52.008;5.426;2022-08-19T09:02:21;20.13;;;17.00;;
49730;SDS011;35622;52.008;5.426;2022-08-19T09:04:47;21.27;;;17.58;;
49730;SDS011;35622;52.008;5.426;2022-08-19T09:07:26;22.30;;;18.52;;
49730;SDS011;35622;52.008;5.426;2022-08-19T09:09:52;24.38;;;21.77;;
49730;SDS011;35622;52.008;5.426;2022-08-19T09:12:47;21.40;;;19.23;;
49730;SDS011;35622;52.008;5.426;2022-08-19T09:15:25;19.10;;;17.10;;
49730;SDS011;35622;52.008;5.426;2022-08-19T09:17:59;21.20;;;18.98;;
49730;SDS011;35622;52.008;5.426;2022-08-19T09:20:27;21.27;;;19.10;;
49730;SDS011;35622;52.008;5.426;2022-08-19T09:22:53;23.38;;;21.08;;
49730;SDS011;35622;52.008;5.426;2022-08-19T09:25:19;21.63;;;19.52;;
49730;SDS011;35622;52.008;5.426;2022-08-19T09:27:49;24.02;;;21.70;;
49730;SDS011;35622;52.008;5.426;2022-08-19T09:30:18;22.40;;;19.98;;
49730;SDS011;35622;52.008;5.426;2022-08-19T09:32:46;21.27;;;18.65;;
49730;SDS011;35622;52.008;5.426;2022-08-19T09:35:13;26.33;;;22.15;;
49730;SDS011;35622;52.008;5.426;2022-08-19T09:37:40;21.65;;;18.90;;
49730;SDS011;35622;52.008;5.426;2022-08-19T09:40:07;24.67;;;22.10;;
49730;SDS011;35622;52.008;5.426;2022-08-19T09:42:33;17.25;;;15.57;;
49730;SDS011;35622;52.008;5.426;2022-08-19T09:44:59;22.02;;;18.98;;
49730;SDS011;35622;52.008;5.426;2022-08-19T09:47:25;21.30;;;19.13;;
49730;SDS011;35622;52.008;5.426;2022-08-19T09:49:50;18.35;;;16.33;;
49730;SDS011;35622;52.008;5.426;2022-08-19T09:52:16;17.45;;;15.68;;
49730;SDS011;35622;52.008;5.426;2022-08-19T09:54:42;19.98;;;17.67;;
49730;SDS011;35622;52.008;5.426;2022-08-19T09:57:08;20.48;;;16.05;;
49730;SDS011;35622;52.008;5.426;2022-08-19T09:59:33;18.90;;;16.90;;
49730;SDS011;35622;52.008;5.426;2022-08-19T10:01:59;20.65;;;16.23;;
49730;SDS011;35622;52.008;5.426;2022-08-19T10:04:25;19.23;;;17.08;;
49730;SDS011;35622;52.008;5.426;2022-08-19T10:07:17;17.67;;;13.88;;
49730;SDS011;35622;52.008;5.426;2022-08-19T10:09:42;20.38;;;18.08;;
49730;SDS011;35622;52.008;5.426;2022-08-19T10:12:08;27.35;;;21.10;;
49730;SDS011;35622;52.008;5.426;2022-08-19T10:14:34;24.73;;;21.50;;
49730;SDS011;35622;52.008;5.426;2022-08-19T10:17:00;22.17;;;19.20;;
49730;SDS011;35622;52.008;5.426;2022-08-19T10:19:27;24.75;;;19.25;;
49730;SDS011;35622;52.008;5.426;2022-08-19T10:21:57;25.70;;;20.80;;
49730;SDS011;35622;52.008;5.426;2022-08-19T10:24:23;30.45;;;24.17;;
49730;SDS011;35622;52.008;5.426;2022-08-19T10:26:49;30.88;;;25.75;;
49730;SDS011;35622;52.008;5.426;2022-08-19T10:29:14;30.00;;;23.52;;
49730;SDS011;35622;52.008;5.426;2022-08-19T10:31:41;29.00;;;23.75;;
49730;SDS011;35622;52.008;5.426;2022-08-19T10:34:07;31.70;;;24.05;;
49730;SDS011;35622;52.008;5.426;2022-08-19T10:36:35;31.35;;;25.65;;
49730;SDS011;35622;52.008;5.426;2022-08-19T10:39:03;26.40;;;21.92;;
49730;SDS011;35622;52.008;5.426;2022-08-19T10:41:32;27.20;;;23.90;;
49730;SDS011;35622;52.008;5.426;2022-08-19T10:44:04;31.92;;;27.67;;
49730;SDS011;35622;52.008;5.426;2022-08-19T10:46:33;33.30;;;28.30;;
49730;SDS011;35622;52.008;5.426;2022-08-19T10:49:02;29.38;;;25.35;;
49730;SDS011;35622;52.008;5.426;2022-08-19T10:51:31;26.58;;;21.80;;
49730;SDS011;35622;52.008;5.426;2022-08-19T10:54:16;26.27;;;23.58;;
49730;SDS011;35622;52.008;5.426;2022-08-19T10:56:42;32.80;;;27.85;;
49730;SDS011;35622;52.008;5.426;2022-08-19T11:01:53;28.20;;;24.17;;
49730;SDS011;35622;52.008;5.426;2022-08-19T11:04:23;28.67;;;25.40;;
49730;SDS011;35622;52.008;5.426;2022-08-19T11:06:49;30.80;;;26.02;;
49730;SDS011;35622;52.008;5.426;2022-08-19T11:09:15;30.70;;;27.38;;
49730;SDS011;35622;52.008;5.426;2022-08-19T11:11:43;31.38;;;26.67;;
49730;SDS011;35622;52.008;5.426;2022-08-19T11:14:13;25.92;;;22.98;;
49730;SDS011;35622;52.008;5.426;2022-08-19T11:16:44;33.80;;;29.20;;
49730;SDS011;35622;52.008;5.426;2022-08-19T11:19:11;30.65;;;25.45;;
49730;SDS011;35622;52.008;5.426;2022-08-19T11:21:40;32.72;;;27.25;;
49730;SDS011;35622;52.008;5.426;2022-08-19T11:24:08;31.27;;;24.98;;
49730;SDS011;35622;52.008;5.426;2022-08-19T11:26:36;29.00;;;25.85;;
49730;SDS011;35622;52.008;5.426;2022-08-19T11:29:03;28.50;;;25.42;;
49730;SDS011;35622;52.008;5.426;2022-08-19T11:31:33;29.50;;;24.55;;
49730;SDS011;35622;52.008;5.426;2022-08-19T11:34:05;29.48;;;24.67;;
49730;SDS011;35622;52.008;5.426;2022-08-19T11:36:33;31.27;;;26.95;;
49730;SDS011;35622;52.008;5.426;2022-08-19T11:39:03;33.47;;;30.08;;
49730;SDS011;35622;52.008;5.426;2022-08-19T11:41:29;35.05;;;30.45;;
49730;SDS011;35622;52.008;5.426;2022-08-19T11:43:55;31.88;;;28.45;;
49730;SDS011;35622;52.008;5.426;2022-08-19T11:46:22;30.35;;;27.13;;
49730;SDS011;35622;52.008;5.426;2022-08-19T11:48:49;31.80;;;28.75;;
49730;SDS011;35622;52.008;5.426;2022-08-19T11:51:17;30.15;;;27.02;;
49730;SDS011;35622;52.008;5.426;2022-08-19T11:53:51;31.58;;;28.48;;
49730;SDS011;35622;52.008;5.426;2022-08-19T11:56:18;30.55;;;27.45;;
49730;SDS011;35622;52.008;5.426;2022-08-19T11:58:45;32.47;;;29.08;;
49730;SDS011;35622;52.008;5.426;2022-08-19T12:01:11;33.80;;;30.20;;
49730;SDS011;35622;52.008;5.426;2022-08-19T12:03:40;30.80;;;27.65;;
49730;SDS011;35622;52.008;5.426;2022-08-19T12:06:08;23.60;;;21.27;;
49730;SDS011;35622;52.008;5.426;2022-08-19T12:08:37;30.33;;;27.27;;
49730;SDS011;35622;52.008;5.426;2022-08-19T12:11:03;28.75;;;25.92;;
49730;SDS011;35622;52.008;5.426;2022-08-19T12:13:30;27.77;;;25.08;;
49730;SDS011;35622;52.008;5.426;2022-08-19T12:15:56;31.08;;;28.05;;
49730;SDS011;35622;52.008;5.426;2022-08-19T12:18:23;30.38;;;27.23;;
49730;SDS011;35622;52.008;5.426;2022-08-19T12:20:50;27.70;;;24.92;;
49730;SDS011;35622;52.008;5.426;2022-08-19T12:23:16;23.13;;;20.85;;
49730;SDS011;35622;52.008;5.426;2022-08-19T12:25:45;26.63;;;23.77;;
49730;SDS011;35622;52.008;5.426;2022-08-19T12:28:16;21.92;;;19.75;;
49730;SDS011;35622;52.008;5.426;2022-08-19T12:30:46;20.10;;;17.48;;
49730;SDS011;35622;52.008;5.426;2022-08-19T12:33:12;17.02;;;15.32;;
49730;SDS011;35622;52.008;5.426;2022-08-19T12:35:42;20.38;;;18.45;;
49730;SDS011;35622;52.008;5.426;2022-08-19T12:38:10;18.08;;;15.18;;
49730;SDS011;35622;52.008;5.426;2022-08-19T12:40:36;14.90;;;13.45;;
49730;SDS011;35622;52.008;5.426;2022-08-19T12:43:02;14.68;;;13.18;;
49730;SDS011;35622;52.008;5.426;2022-08-19T12:45:28;13.75;;;12.23;;
49730;SDS011;35622;52.008;5.426;2022-08-19T12:47:53;17.02;;;14.88;;
49730;SDS011;35622;52.008;5.426;2022-08-19T12:50:19;16.27;;;14.27;;
49730;SDS011;35622;52.008;5.426;2022-08-19T12:52:46;18.40;;;16.40;;
49730;SDS011;35622;52.008;5.426;2022-08-19T12:55:16;14.05;;;11.63;;
49730;SDS011;35622;52.008;5.426;2022-08-19T12:57:44;19.55;;;16.35;;
49730;SDS011;35622;52.008;5.426;2022-08-19T13:00:12;14.73;;;12.52;;
49730;SDS011;35622;52.008;5.426;2022-08-19T13:02:41;18.38;;;16.50;;
49730;SDS011;35622;52.008;5.426;2022-08-19T13:05:10;18.27;;;16.45;;
49730;SDS011;35622;52.008;5.426;2022-08-19T13:07:38;13.43;;;12.05;;
49730;SDS011;35622;52.008;5.426;2022-08-19T13:10:05;14.90;;;13.18;;
49730;SDS011;35622;52.008;5.426;2022-08-19T13:12:32;12.48;;;9.57;;
49730;SDS011;35622;52.008;5.426;2022-08-19T13:14:58;12.52;;;10.18;;
49730;SDS011;35622;52.008;5.426;2022-08-19T13:17:24;14.80;;;13.30;;
49730;SDS011;35622;52.008;5.426;2022-08-19T13:19:49;15.38;;;12.63;;
49730;SDS011;35622;52.008;5.426;2022-08-19T13:22:15;14.20;;;12.75;;
49730;SDS011;35622;52.008;5.426;2022-08-19T13:24:41;15.48;;;13.82;;
49730;SDS011;35622;52.008;5.426;2022-08-19T13:27:08;15.93;;;12.85;;
49730;SDS011;35622;52.008;5.426;2022-08-19T13:29:33;20.73;;;15.55;;
49730;SDS011;35622;52.008;5.426;2022-08-19T13:32:20;12.20;;;9.35;;
49730;SDS011;35622;52.008;5.426;2022-08-19T13:35:04;14.57;;;12.55;;
49730;SDS011;35622;52.008;5.426;2022-08-19T13:37:30;15.13;;;13.63;;
49730;SDS011;35622;52.008;5.426;2022-08-19T13:40:09;14.27;;;12.55;;
49730;SDS011;35622;52.008;5.426;2022-08-19T13:42:42;18.45;;;16.52;;
49730;SDS011;35622;52.008;5.426;2022-08-19T13:45:10;14.70;;;12.98;;
49730;SDS011;35622;52.008;5.426;2022-08-19T13:47:36;13.80;;;12.32;;
49730;SDS011;35622;52.008;5.426;2022-08-19T13:50:15;14.38;;;11.70;;
49730;SDS011;35622;52.008;5.426;2022-08-19T13:52:43;13.35;;;11.18;;
49730;SDS011;35622;52.008;5.426;2022-08-19T13:55:10;26.38;;;13.02;;
49730;SDS011;35622;52.008;5.426;2022-08-19T13:57:37;13.90;;;11.97;;
49730;SDS011;35622;52.008;5.426;2022-08-19T14:00:11;18.38;;;14.00;;
49730;SDS011;35622;52.008;5.426;2022-08-19T14:02:41;17.60;;;13.27;;
49730;SDS011;35622;52.008;5.426;2022-08-19T14:05:09;21.05;;;12.43;;
49730;SDS011;35622;52.008;5.426;2022-08-19T14:07:36;24.36;;;13.84;;
49730;SDS011;35622;52.008;5.426;2022-08-19T14:10:02;19.73;;;11.68;;
49730;SDS011;35622;52.008;5.426;2022-08-19T14:12:35;11.43;;;7.53;;
49730;SDS011;35622;52.008;5.426;2022-08-19T14:15:03;13.15;;;10.02;;
49730;SDS011;35622;52.008;5.426;2022-08-19T14:17:38;14.85;;;9.23;;
49730;SDS011;35622;52.008;5.426;2022-08-19T14:20:05;10.00;;;8.38;;
49730;SDS011;35622;52.008;5.426;2022-08-19T14:22:34;13.43;;;8.70;;
49730;SDS011;35622;52.008;5.426;2022-08-19T14:25:06;13.00;;;8.15;;
49730;SDS011;35622;52.008;5.426;2022-08-19T14:27:39;9.57;;;7.82;;
49730;SDS011;35622;52.008;5.426;2022-08-19T14:30:06;11.68;;;10.38;;
49730;SDS011;35622;52.008;5.426;2022-08-19T14:32:34;10.50;;;9.50;;
49730;SDS011;35622;52.008;5.426;2022-08-19T14:35:00;10.00;;;9.10;;
49730;SDS011;35622;52.008;5.426;2022-08-19T14:37:26;10.45;;;9.45;;